createdAt,value
2017-09-12T00:02:10.282Z,48.83
2017-09-12T00:04:42.078Z,49.29
2017-09-12T00:07:10.631Z,49.83
2017-09-12T00:09:40.474Z,49.96
2017-09-12T00:12:17.906Z,49.30
2017-09-12T00:14:47.678Z,48.92
2017-09-12T00:17:15.305Z,48.27
2017-09-12T00:19:42.852Z,48.34
2017-09-12T00:22:10.410Z,48.27
2017-09-12T00:24:38.011Z,48.59
2017-09-12T00:27:05.539Z,47.54
2017-09-12T00:29:33.092Z,47.33
2017-09-12T00:32:00.671Z,48.02
2017-09-12T00:34:28.435Z,47.90
2017-09-12T00:36:56.023Z,47.79
2017-09-12T00:39:23.683Z,47.99
2017-09-12T00:41:51.303Z,48.44
2017-09-12T00:44:18.903Z,48.40
2017-09-12T00:46:46.524Z,48.16
2017-09-12T00:49:14.266Z,48.17
2017-09-12T00:51:42.125Z,48.29
2017-09-12T00:54:09.795Z,49.08
2017-09-12T00:56:37.415Z,48.78
2017-09-12T00:59:06.022Z,49.41
2017-09-12T01:01:33.672Z,50.50
2017-09-12T01:04:01.264Z,50.38
2017-09-12T01:06:28.812Z,49.88
2017-09-12T01:08:56.430Z,49.33
2017-09-12T01:11:23.978Z,50.19
2017-09-12T01:13:52.302Z,50.77
2017-09-12T01:16:19.909Z,51.20
2017-09-12T01:18:47.462Z,51.46
2017-09-12T01:21:15.013Z,50.91
2017-09-12T01:23:42.614Z,50.91
2017-09-12T01:26:10.435Z,50.65
2017-09-12T01:28:38.070Z,50.49
2017-09-12T01:31:05.694Z,50.17
2017-09-12T01:33:33.257Z,50.04
2017-09-12T01:36:01.042Z,49.85
2017-09-12T01:38:28.622Z,49.83
2017-09-12T01:40:56.169Z,49.36
2017-09-12T01:43:23.685Z,49.10
2017-09-12T01:45:51.295Z,49.73
2017-09-12T01:48:19.026Z,49.60
2017-09-12T01:50:46.544Z,49.64
2017-09-12T01:53:14.198Z,51.03
2017-09-12T01:55:41.746Z,50.53
2017-09-12T01:58:09.642Z,50.10
2017-09-12T02:00:38.159Z,49.53
2017-09-12T02:03:05.702Z,49.35
2017-09-12T02:05:33.276Z,49.43
2017-09-12T02:08:00.871Z,49.25
2017-09-12T02:10:28.401Z,49.54
2017-09-12T02:12:56.239Z,49.17
2017-09-12T02:15:23.786Z,49.17
2017-09-12T02:17:51.295Z,49.12
2017-09-12T02:20:18.842Z,49.19
2017-09-12T02:22:46.802Z,49.63
2017-09-12T02:25:14.335Z,49.25
2017-09-12T02:27:42.620Z,50.19
2017-09-12T02:30:10.298Z,50.16
2017-09-12T02:32:38.095Z,49.97
2017-09-12T02:35:05.651Z,49.59
2017-09-12T02:37:33.214Z,49.78
2017-09-12T02:40:00.756Z,49.75
2017-09-12T02:42:28.596Z,49.53
2017-09-12T02:44:56.170Z,49.54
2017-09-12T02:47:23.702Z,49.47
2017-09-12T02:49:51.636Z,50.80
2017-09-12T02:52:19.346Z,50.71
2017-09-12T02:54:47.195Z,51.00
2017-09-12T02:57:14.712Z,50.83
2017-09-12T02:59:42.314Z,50.72
2017-09-12T03:02:09.898Z,50.04
2017-09-12T03:04:37.406Z,49.79
2017-09-12T03:07:04.922Z,49.77
2017-09-12T03:09:32.538Z,49.65
2017-09-12T03:12:00.072Z,49.72
2017-09-12T03:14:27.645Z,49.77
2017-09-12T03:16:55.210Z,50.18
2017-09-12T03:19:23.030Z,50.96
2017-09-12T03:21:50.553Z,50.51
2017-09-12T03:24:18.138Z,50.07
2017-09-12T03:26:45.655Z,50.26
2017-09-12T03:29:13.186Z,51.33
2017-09-12T03:31:40.778Z,51.16
2017-09-12T03:34:08.333Z,51.04
2017-09-12T03:36:36.008Z,51.05
2017-09-12T03:39:03.735Z,51.23
2017-09-12T03:41:31.783Z,51.42
2017-09-12T03:43:59.409Z,51.45
2017-09-12T03:46:26.980Z,51.63
2017-09-12T03:48:54.837Z,51.26
2017-09-12T03:51:22.461Z,50.90
2017-09-12T03:53:50.097Z,50.77
2017-09-12T03:56:17.769Z,50.61
2017-09-12T03:58:45.446Z,50.66
2017-09-12T04:01:13.497Z,50.31
2017-09-12T04:03:41.179Z,50.50
2017-09-12T04:06:11.869Z,50.39
2017-09-12T04:08:42.205Z,50.33
2017-09-12T04:11:10.112Z,50.22
2017-09-12T04:13:38.136Z,50.08
2017-09-12T04:16:05.975Z,50.44
2017-09-12T04:18:33.653Z,50.22
2017-09-12T04:21:04.580Z,50.57
2017-09-12T04:23:34.055Z,50.26
2017-09-12T04:26:01.859Z,50.76
2017-09-12T04:28:29.910Z,50.73
2017-09-12T04:30:57.690Z,49.86
2017-09-12T04:33:25.331Z,48.98
2017-09-12T04:35:52.934Z,47.79
2017-09-12T04:38:20.540Z,48.96
2017-09-12T04:40:48.167Z,47.28
2017-09-12T04:43:15.781Z,45.26
2017-09-12T04:45:43.438Z,44.39
2017-09-12T04:48:11.050Z,43.78
2017-09-12T04:50:38.686Z,42.40
2017-09-12T04:53:06.277Z,45.87
2017-09-12T04:55:33.802Z,45.31
2017-09-12T04:58:01.303Z,44.53
2017-09-12T05:00:28.866Z,46.63
2017-09-12T05:02:56.768Z,47.21
2017-09-12T05:05:24.314Z,48.08
2017-09-12T05:07:51.854Z,47.26
2017-09-12T05:10:19.464Z,46.50
2017-09-12T05:12:47.340Z,47.65
2017-09-12T05:15:15.039Z,47.28
2017-09-12T05:17:42.576Z,46.60
2017-09-12T05:20:10.148Z,49.43
2017-09-12T05:22:37.738Z,49.47
2017-09-12T05:25:05.250Z,49.37
2017-09-12T05:27:32.805Z,48.86
2017-09-12T05:30:00.411Z,48.68
2017-09-12T05:32:27.963Z,50.16
2017-09-12T05:34:55.546Z,48.84
2017-09-12T05:37:23.153Z,48.17
2017-09-12T05:39:50.705Z,49.62
2017-09-12T05:42:18.257Z,50.24
2017-09-12T05:44:46.076Z,50.77
2017-09-12T05:47:13.781Z,50.45
2017-09-12T05:49:41.310Z,50.09
2017-09-12T05:52:09.070Z,48.93
2017-09-12T05:54:36.692Z,45.88
2017-09-12T05:57:04.217Z,47.05
2017-09-12T05:59:31.977Z,46.94
2017-09-12T06:01:59.511Z,48.94
2017-09-12T06:04:27.045Z,46.03
2017-09-12T06:06:54.575Z,47.76
2017-09-12T06:09:22.222Z,44.32
2017-09-12T06:11:49.761Z,45.47
2017-09-12T06:14:17.322Z,44.90
2017-09-12T06:16:44.996Z,42.97
2017-09-12T06:19:12.530Z,42.34
2017-09-12T06:21:40.042Z,43.47
2017-09-12T06:24:07.808Z,43.35
2017-09-12T06:26:35.597Z,42.69
2017-09-12T06:29:03.189Z,43.52
2017-09-12T06:31:31.338Z,43.32
2017-09-12T06:33:58.840Z,43.58
2017-09-12T06:36:26.338Z,43.49
2017-09-12T06:38:53.912Z,42.56
2017-09-12T06:41:21.467Z,42.80
2017-09-12T06:43:49.216Z,42.82
2017-09-12T06:46:16.778Z,42.60
2017-09-12T06:48:44.300Z,42.60
2017-09-12T06:51:12.202Z,43.17
2017-09-12T06:53:39.771Z,43.28
2017-09-12T06:56:07.364Z,43.72
2017-09-12T06:58:34.888Z,43.64
2017-09-12T07:01:02.498Z,43.60
2017-09-12T07:03:30.024Z,43.91
2017-09-12T07:05:57.543Z,43.09
2017-09-12T07:08:25.143Z,43.14
2017-09-12T07:10:52.678Z,43.35
2017-09-12T07:13:20.256Z,43.65
2017-09-12T07:15:47.797Z,43.74
2017-09-12T07:18:15.545Z,43.11
2017-09-12T07:20:43.053Z,43.60
2017-09-12T07:23:10.602Z,41.36
2017-09-12T07:25:38.122Z,40.32
2017-09-12T07:28:05.628Z,40.56
2017-09-12T07:30:33.265Z,41.20
2017-09-12T07:33:00.791Z,41.84
2017-09-12T07:35:28.550Z,42.34
2017-09-12T07:37:56.108Z,41.12
2017-09-12T07:40:23.682Z,39.07
2017-09-12T07:42:51.216Z,37.87
2017-09-12T07:45:18.760Z,37.12
2017-09-12T07:47:46.301Z,35.71
2017-09-12T07:50:13.803Z,36.17
2017-09-12T07:52:41.390Z,35.95
2017-09-12T07:55:08.898Z,33.97
2017-09-12T07:57:36.448Z,35.09
2017-09-12T08:00:06.129Z,35.34
2017-09-12T08:02:33.653Z,35.21
2017-09-12T08:05:01.426Z,35.12
2017-09-12T08:07:28.978Z,34.57
2017-09-12T08:09:56.483Z,35.76
2017-09-12T08:12:24.006Z,34.73
2017-09-12T08:14:51.598Z,35.36
2017-09-12T08:17:19.397Z,33.48
2017-09-12T08:19:46.918Z,32.47
2017-09-12T08:22:14.562Z,31.53
2017-09-12T08:28:12.708Z,33.60
2017-09-12T08:30:40.279Z,32.82
2017-09-12T08:33:07.805Z,32.85
2017-09-12T08:35:35.370Z,31.79
2017-09-12T08:38:02.957Z,30.19
2017-09-12T08:40:30.522Z,30.47
2017-09-12T08:42:58.048Z,29.38
2017-09-12T08:45:25.606Z,30.44
2017-09-12T08:47:53.149Z,31.94
2017-09-12T08:50:20.663Z,30.99
2017-09-12T08:52:48.286Z,31.28
2017-09-12T08:55:15.845Z,30.94
2017-09-12T08:57:43.409Z,31.68
2017-09-12T09:00:11.054Z,30.68
2017-09-12T09:02:38.614Z,30.77
2017-09-12T09:05:06.142Z,31.53
2017-09-12T09:07:33.694Z,31.28
2017-09-12T09:10:01.225Z,30.70
2017-09-12T09:12:28.764Z,30.72
2017-09-12T09:14:56.333Z,30.45
2017-09-12T09:17:23.922Z,30.84
2017-09-12T09:19:51.425Z,30.66
2017-09-12T09:22:19.203Z,32.68
2017-09-12T09:24:46.782Z,32.50
2017-09-12T09:27:14.340Z,32.50
2017-09-12T09:29:41.901Z,32.33
2017-09-12T09:32:09.455Z,32.08
2017-09-12T09:34:36.968Z,31.36
2017-09-12T09:37:04.533Z,31.07
2017-09-12T09:39:32.090Z,30.70
2017-09-12T09:41:59.751Z,31.19
2017-09-12T09:44:27.285Z,32.28
2017-09-12T09:46:54.911Z,31.92
2017-09-12T09:49:22.435Z,32.97
2017-09-12T09:51:49.942Z,33.26
2017-09-12T09:54:17.494Z,33.34
2017-09-12T09:56:45.005Z,33.11
2017-09-12T09:59:12.537Z,33.46
2017-09-12T10:01:40.165Z,33.40
2017-09-12T10:04:07.701Z,33.15
2017-09-12T10:06:35.380Z,32.63
2017-09-12T10:09:03.114Z,32.64
2017-09-12T10:11:30.635Z,32.41
2017-09-12T10:13:58.162Z,32.24
2017-09-12T10:16:25.709Z,31.46
2017-09-12T10:18:53.230Z,30.63
2017-09-12T10:21:20.741Z,30.10
2017-09-12T10:23:48.294Z,29.99
2017-09-12T10:26:16.156Z,30.00
2017-09-12T10:28:43.702Z,29.72
2017-09-12T10:31:11.350Z,29.64
2017-09-12T10:33:38.933Z,29.07
2017-09-12T10:36:06.460Z,30.04
2017-09-12T10:38:34.027Z,30.00
2017-09-12T10:41:01.552Z,29.75
2017-09-12T10:43:29.098Z,29.52
2017-09-12T10:45:56.670Z,29.60
2017-09-12T10:48:24.173Z,29.72
2017-09-12T10:50:51.710Z,29.79
2017-09-12T10:53:19.317Z,30.71
2017-09-12T10:55:46.982Z,29.93
2017-09-12T10:58:14.508Z,30.71
2017-09-12T11:00:42.322Z,30.46
2017-09-12T11:03:09.873Z,30.13
2017-09-12T11:05:37.378Z,29.98
2017-09-12T11:08:04.940Z,29.79
2017-09-12T11:10:32.443Z,29.73
2017-09-12T11:13:00.020Z,30.85
2017-09-12T11:15:27.649Z,30.60
2017-09-12T11:17:55.195Z,31.04
2017-09-12T11:20:22.909Z,29.94
2017-09-12T11:22:50.543Z,30.02
2017-09-12T11:25:18.050Z,30.63
2017-09-12T11:27:45.565Z,30.80
2017-09-12T11:30:13.128Z,30.50
2017-09-12T11:32:40.952Z,30.63
2017-09-12T11:35:08.512Z,31.20
2017-09-12T11:37:36.081Z,31.47
2017-09-12T11:40:03.603Z,31.93
2017-09-12T11:42:31.643Z,31.19
2017-09-12T11:44:59.198Z,31.16
2017-09-12T11:47:27.149Z,30.47
2017-09-12T11:49:54.746Z,30.99
2017-09-12T11:52:22.298Z,31.76
2017-09-12T11:54:50.270Z,30.70
2017-09-12T11:57:18.129Z,30.95
2017-09-12T11:59:45.678Z,30.13
2017-09-12T12:02:13.243Z,30.03
2017-09-12T12:04:40.806Z,29.50
2017-09-12T12:07:08.411Z,29.99
2017-09-12T12:09:35.961Z,30.55
2017-09-12T12:12:03.513Z,30.35
2017-09-12T12:14:31.066Z,30.21
2017-09-12T12:16:58.652Z,30.61
2017-09-12T12:19:26.209Z,30.87
2017-09-12T12:21:53.745Z,30.80
2017-09-12T12:24:21.338Z,30.76
2017-09-12T12:26:49.091Z,30.79
2017-09-12T12:29:16.838Z,30.05
2017-09-12T12:31:44.406Z,29.63
2017-09-12T12:34:11.960Z,30.60
2017-09-12T12:36:39.534Z,30.86
2017-09-12T12:39:07.319Z,30.75
2017-09-12T12:41:34.838Z,30.91
2017-09-12T12:44:02.360Z,31.44
2017-09-12T12:46:29.943Z,31.89
2017-09-12T12:48:57.570Z,32.79
2017-09-12T12:51:25.110Z,32.71
2017-09-12T12:53:52.758Z,32.63
2017-09-12T12:56:20.411Z,32.99
2017-09-12T12:58:47.977Z,33.19
2017-09-12T13:01:15.659Z,32.82
2017-09-12T13:03:43.242Z,32.72
2017-09-12T13:06:10.832Z,32.91
2017-09-12T13:08:38.418Z,32.68
2017-09-12T13:11:06.990Z,32.78
2017-09-12T13:13:34.529Z,32.72
2017-09-12T13:16:02.245Z,32.89
2017-09-12T13:18:29.922Z,33.03
2017-09-12T13:20:57.486Z,33.79
2017-09-12T13:23:25.126Z,33.84
2017-09-12T13:25:53.061Z,34.37
2017-09-12T13:28:20.749Z,34.05
2017-09-12T13:30:48.442Z,33.78
2017-09-12T13:33:15.986Z,33.56
2017-09-12T13:35:43.606Z,33.55
2017-09-12T13:38:11.221Z,33.67
2017-09-12T13:40:38.859Z,33.70
2017-09-12T13:43:06.485Z,33.90
2017-09-12T13:45:34.093Z,33.89
2017-09-12T13:48:02.270Z,34.06
2017-09-12T13:50:29.884Z,34.49
2017-09-12T13:52:57.542Z,33.96
2017-09-12T13:55:25.154Z,34.12
2017-09-12T13:57:52.748Z,34.33
2017-09-12T14:00:20.345Z,34.52
2017-09-12T14:02:47.866Z,34.59
2017-09-12T14:05:15.432Z,34.71
2017-09-12T14:07:44.128Z,34.81
2017-09-12T14:10:11.638Z,34.85
2017-09-12T14:12:39.381Z,34.80
2017-09-12T14:15:06.936Z,34.71
2017-09-12T14:17:34.514Z,35.28
2017-09-12T14:20:02.157Z,35.18
2017-09-12T14:22:29.924Z,35.16
2017-09-12T14:24:57.534Z,35.28
2017-09-12T14:27:25.162Z,35.37
2017-09-12T14:29:52.934Z,35.40
2017-09-12T14:32:20.674Z,35.09
2017-09-12T14:34:48.431Z,35.49
2017-09-12T14:37:15.994Z,35.42
2017-09-12T14:39:43.570Z,35.41
2017-09-12T14:42:11.161Z,35.59
2017-09-12T14:44:38.846Z,35.54
2017-09-12T14:47:06.521Z,35.80
2017-09-12T14:49:34.310Z,35.90
2017-09-12T14:52:02.113Z,36.00
2017-09-12T14:54:30.227Z,36.00
2017-09-12T14:56:57.873Z,36.08
2017-09-12T14:59:25.440Z,36.28
2017-09-12T15:01:53.058Z,36.10
2017-09-12T15:04:20.591Z,36.39
2017-09-12T15:06:48.401Z,35.87
2017-09-12T15:09:16.008Z,36.00
2017-09-12T15:11:43.648Z,35.99
2017-09-12T15:14:11.222Z,36.42
2017-09-12T15:16:38.790Z,36.63
2017-09-12T15:19:06.322Z,35.81
2017-09-12T15:21:33.913Z,36.03
2017-09-12T15:24:01.499Z,36.18
2017-09-12T15:26:29.070Z,36.45
2017-09-12T15:28:56.806Z,36.80
2017-09-12T15:31:24.403Z,36.67
2017-09-12T15:33:52.022Z,36.71
2017-09-12T15:36:19.558Z,36.56
2017-09-12T15:38:47.137Z,36.72
2017-09-12T15:41:14.687Z,36.66
2017-09-12T15:43:42.217Z,36.90
2017-09-12T15:46:09.826Z,37.10
2017-09-12T15:48:37.383Z,37.05
2017-09-12T15:51:04.962Z,37.01
2017-09-12T15:53:32.566Z,37.43
2017-09-12T15:56:00.098Z,37.99
2017-09-12T15:58:28.497Z,37.75
2017-09-12T16:00:56.150Z,37.84
2017-09-12T16:03:23.686Z,37.86
2017-09-12T16:05:51.229Z,38.03
2017-09-12T16:08:18.819Z,38.21
2017-09-12T16:10:46.393Z,38.22
2017-09-12T16:13:14.086Z,38.37
2017-09-12T16:15:41.720Z,38.36
2017-09-12T16:18:09.261Z,38.20
2017-09-12T16:20:36.872Z,38.32
2017-09-12T16:23:04.855Z,38.58
2017-09-12T16:25:32.457Z,38.62
2017-09-12T16:28:00.195Z,38.58
2017-09-12T16:30:27.929Z,38.58
2017-09-12T16:32:55.498Z,38.51
2017-09-12T16:35:23.014Z,38.51
2017-09-12T16:37:50.610Z,38.94
2017-09-12T16:40:18.178Z,38.82
2017-09-12T16:42:45.745Z,39.11
2017-09-12T16:45:13.314Z,39.30
2017-09-12T16:47:40.901Z,39.43
2017-09-12T16:50:08.460Z,39.76
2017-09-12T16:52:36.033Z,39.48
2017-09-12T16:55:03.594Z,39.82
2017-09-12T16:57:31.183Z,40.30
2017-09-12T16:59:58.781Z,40.32
2017-09-12T17:02:26.512Z,40.78
2017-09-12T17:04:54.380Z,40.97
2017-09-12T17:07:22.279Z,41.15
2017-09-12T17:09:49.878Z,41.22
2017-09-12T17:12:17.418Z,41.45
2017-09-12T17:14:45.813Z,41.33
2017-09-12T17:17:13.364Z,41.18
2017-09-12T17:19:41.379Z,41.65
2017-09-12T17:22:08.978Z,41.98
2017-09-12T17:24:36.626Z,41.83
2017-09-12T17:27:04.171Z,41.88
2017-09-12T17:29:31.703Z,41.83
2017-09-12T17:31:59.343Z,42.02
2017-09-12T17:34:26.911Z,42.20
2017-09-12T17:36:54.551Z,41.92
2017-09-12T17:39:22.119Z,42.23
2017-09-12T17:41:49.836Z,42.20
2017-09-12T17:44:18.438Z,42.62
2017-09-12T17:46:46.127Z,42.36
2017-09-12T17:49:13.700Z,42.53
2017-09-12T17:51:41.308Z,43.13
2017-09-12T17:54:09.696Z,42.95
2017-09-12T17:56:37.263Z,43.10
2017-09-12T17:59:05.720Z,42.79
2017-09-12T18:01:34.238Z,43.06
2017-09-12T18:04:01.776Z,42.78
2017-09-12T18:06:29.474Z,42.89
2017-09-12T18:08:57.076Z,42.98
2017-09-12T18:11:24.717Z,42.95
2017-09-12T18:13:52.289Z,43.05
2017-09-12T18:16:20.422Z,43.63
2017-09-12T18:18:48.240Z,43.39
2017-09-12T18:21:16.723Z,43.56
2017-09-12T18:23:44.286Z,43.64
2017-09-12T18:26:11.843Z,43.79
2017-09-12T18:28:39.436Z,43.78
2017-09-12T18:31:07.013Z,43.79
2017-09-12T18:33:34.611Z,43.95
2017-09-12T18:36:02.165Z,44.31
2017-09-12T18:38:29.805Z,44.54
2017-09-12T18:40:58.387Z,44.63
2017-09-12T18:43:25.960Z,44.41
2017-09-12T18:45:53.641Z,44.46
2017-09-12T18:48:21.195Z,44.44
2017-09-12T18:50:48.745Z,44.53
2017-09-12T18:53:16.442Z,44.67
2017-09-12T18:55:43.982Z,44.52
2017-09-12T18:58:11.519Z,44.25
2017-09-12T19:00:39.141Z,44.52
2017-09-12T19:03:06.909Z,44.69
2017-09-12T19:05:34.739Z,44.61
2017-09-12T19:08:02.853Z,45.00
2017-09-12T19:10:30.482Z,44.71
2017-09-12T19:12:58.272Z,44.89
2017-09-12T19:15:25.874Z,44.71
2017-09-12T19:17:53.697Z,44.56
2017-09-12T19:20:21.273Z,45.28
2017-09-12T19:22:48.930Z,45.29
2017-09-12T19:25:16.593Z,45.04
2017-09-12T19:27:44.253Z,45.38
2017-09-12T19:30:12.014Z,45.70
2017-09-12T19:32:39.600Z,45.91
2017-09-12T19:35:07.687Z,45.81
2017-09-12T19:37:35.485Z,45.20
2017-09-12T19:40:03.274Z,45.60
2017-09-12T19:42:30.872Z,46.00
2017-09-12T19:44:58.479Z,46.01
2017-09-12T19:47:26.915Z,46.35
2017-09-12T19:49:55.279Z,46.59
2017-09-12T19:52:22.891Z,46.42
2017-09-12T19:54:50.683Z,46.93
2017-09-12T19:57:18.498Z,47.26
2017-09-12T19:59:46.134Z,47.59
2017-09-12T20:02:13.757Z,47.52
2017-09-12T20:04:41.323Z,47.63
2017-09-12T20:07:08.879Z,47.44
2017-09-12T20:09:37.297Z,47.34
2017-09-12T20:12:04.923Z,47.08
2017-09-12T20:14:32.526Z,46.99
2017-09-12T20:17:00.126Z,47.32
2017-09-12T20:19:28.043Z,47.46
2017-09-12T20:21:55.616Z,47.85
2017-09-12T20:24:23.263Z,48.02
2017-09-12T20:26:50.849Z,47.67
2017-09-12T20:29:18.439Z,48.19
2017-09-12T20:31:46.075Z,48.62
2017-09-12T20:34:13.617Z,48.49
2017-09-12T20:36:41.426Z,48.50
2017-09-12T20:39:09.061Z,48.51
2017-09-12T20:41:37.333Z,48.21
2017-09-12T20:44:04.917Z,48.31
2017-09-12T20:46:36.125Z,48.50
2017-09-12T20:49:06.489Z,48.44
2017-09-12T20:54:11.521Z,48.46
2017-09-12T20:56:39.100Z,48.60
2017-09-12T20:59:06.687Z,48.75
2017-09-12T21:01:34.302Z,48.86
2017-09-12T21:04:01.902Z,48.59
2017-09-12T21:06:29.699Z,48.57
2017-09-12T21:08:57.334Z,48.52
2017-09-12T21:11:24.915Z,48.41
2017-09-12T21:13:52.538Z,48.59
2017-09-12T21:16:20.166Z,48.61
2017-09-12T21:18:47.725Z,48.60
2017-09-12T21:21:15.249Z,49.07
2017-09-12T21:23:42.829Z,49.06
2017-09-12T21:26:10.367Z,49.23
2017-09-12T21:28:37.912Z,49.19
2017-09-12T21:31:05.502Z,49.09
2017-09-12T21:33:33.096Z,49.25
2017-09-12T21:36:00.619Z,49.09
2017-09-12T21:38:28.202Z,49.31
2017-09-12T21:40:55.794Z,49.52
2017-09-12T21:43:23.364Z,49.50
2017-09-12T21:45:51.026Z,49.52
2017-09-12T21:48:18.598Z,49.77
2017-09-12T21:50:46.417Z,49.93
2017-09-12T21:53:14.100Z,50.19
2017-09-12T21:55:41.671Z,50.30
2017-09-12T21:58:09.248Z,50.38
2017-09-12T22:00:37.015Z,50.80
2017-09-12T22:03:04.780Z,50.95
2017-09-12T22:05:32.358Z,51.08
2017-09-12T22:07:59.970Z,51.13
2017-09-12T22:10:27.551Z,51.34
2017-09-12T22:12:55.176Z,51.52
2017-09-12T22:15:22.794Z,51.19
2017-09-12T22:17:50.451Z,51.21
2017-09-12T22:20:18.307Z,51.25
2017-09-12T22:22:45.874Z,50.74
2017-09-12T22:25:13.418Z,50.49
2017-09-12T22:27:41.018Z,50.87
2017-09-12T22:30:08.680Z,51.07
2017-09-12T22:32:36.198Z,50.92
2017-09-12T22:35:03.739Z,50.82
2017-09-12T22:37:32.108Z,50.49
2017-09-12T22:39:59.644Z,50.17
2017-09-12T22:42:27.193Z,49.99
2017-09-12T22:44:54.810Z,50.04
2017-09-12T22:47:22.415Z,50.06
2017-09-12T22:49:50.010Z,49.93
2017-09-12T22:52:17.627Z,49.69
2017-09-12T22:54:45.196Z,49.43
2017-09-12T22:57:12.961Z,49.53
2017-09-12T22:59:40.543Z,49.50
2017-09-12T23:02:08.177Z,49.40
2017-09-12T23:04:35.934Z,48.99
2017-09-12T23:07:03.878Z,48.79
2017-09-12T23:09:31.459Z,48.52
2017-09-12T23:11:58.977Z,48.28
2017-09-12T23:14:26.731Z,47.84
2017-09-12T23:16:54.332Z,47.38
2017-09-12T23:19:21.892Z,47.10
2017-09-12T23:21:50.129Z,46.91
2017-09-12T23:24:17.734Z,46.93
2017-09-12T23:26:45.319Z,46.70
2017-09-12T23:29:12.870Z,46.75
2017-09-12T23:31:40.489Z,46.82
2017-09-12T23:34:08.081Z,46.21
2017-09-12T23:36:35.671Z,45.46
2017-09-12T23:39:03.226Z,45.02
2017-09-12T23:41:30.782Z,44.88
2017-09-12T23:43:58.377Z,44.57
2017-09-12T23:46:25.977Z,44.43
2017-09-12T23:48:53.734Z,44.43
2017-09-12T23:51:21.605Z,44.48
2017-09-12T23:53:49.203Z,44.39
2017-09-12T23:56:16.753Z,44.52
2017-09-12T23:58:44.330Z,44.36
